sensor_id;sensor_type;location;lat;lon;timestamp;P1;durP1;ratioP1;P2;durP2;ratioP2
25868;SDS011;13688;53.154;18.136;2023-08-06T00:01:49;2.95;;;2.35;;
25868;SDS011;13688;53.154;18.136;2023-08-06T00:07:11;4.90;;;2.77;;
25868;SDS011;13688;53.154;18.136;2023-08-06T00:12:34;3.37;;;2.23;;
25868;SDS011;13688;53.154;18.136;2023-08-06T00:17:59;3.77;;;2.10;;
25868;SDS011;13688;53.154;18.136;2023-08-06T00:23:25;4.37;;;2.22;;
25868;SDS011;13688;53.154;18.136;2023-08-06T00:28:47;4.83;;;2.70;;
25868;SDS011;13688;53.154;18.136;2023-08-06T00:34:10;3.87;;;2.30;;
25868;SDS011;13688;53.154;18.136;2023-08-06T00:39:34;2.72;;;2.40;;
25868;SDS011;13688;53.154;18.136;2023-08-06T00:45:00;3.57;;;2.37;;
25868;SDS011;13688;53.154;18.136;2023-08-06T00:50:26;3.10;;;2.08;;
25868;SDS011;13688;53.154;18.136;2023-08-06T00:55:46;4.37;;;2.17;;
25868;SDS011;13688;53.154;18.136;2023-08-06T01:01:08;4.78;;;2.72;;
25868;SDS011;13688;53.154;18.136;2023-08-06T01:06:35;4.42;;;2.60;;
25868;SDS011;13688;53.154;18.136;2023-08-06T01:12:20;4.42;;;2.35;;
25868;SDS011;13688;53.154;18.136;2023-08-06T01:17:48;5.28;;;2.92;;
25868;SDS011;13688;53.154;18.136;2023-08-06T01:23:11;8.80;;;2.75;;
25868;SDS011;13688;53.154;18.136;2023-08-06T01:28:48;4.72;;;2.27;;
25868;SDS011;13688;53.154;18.136;2023-08-06T01:34:28;5.60;;;2.60;;
25868;SDS011;13688;53.154;18.136;2023-08-06T01:39:55;4.60;;;2.37;;
25868;SDS011;13688;53.154;18.136;2023-08-06T01:45:21;3.20;;;2.70;;
25868;SDS011;13688;53.154;18.136;2023-08-06T01:50:45;4.43;;;2.73;;
25868;SDS011;13688;53.154;18.136;2023-08-06T01:56:12;5.72;;;2.30;;
25868;SDS011;13688;53.154;18.136;2023-08-06T02:01:35;2.80;;;2.13;;
25868;SDS011;13688;53.154;18.136;2023-08-06T02:06:58;3.70;;;2.20;;
25868;SDS011;13688;53.154;18.136;2023-08-06T02:12:21;3.50;;;2.30;;
25868;SDS011;13688;53.154;18.136;2023-08-06T02:17:43;4.33;;;2.30;;
25868;SDS011;13688;53.154;18.136;2023-08-06T02:23:06;3.52;;;2.10;;
25868;SDS011;13688;53.154;18.136;2023-08-06T02:28:29;2.87;;;1.90;;
25868;SDS011;13688;53.154;18.136;2023-08-06T02:33:52;5.53;;;2.47;;
25868;SDS011;13688;53.154;18.136;2023-08-06T02:39:14;3.73;;;1.80;;
25868;SDS011;13688;53.154;18.136;2023-08-06T02:44:38;3.70;;;2.08;;
25868;SDS011;13688;53.154;18.136;2023-08-06T02:50:01;3.80;;;2.00;;
25868;SDS011;13688;53.154;18.136;2023-08-06T02:55:23;3.52;;;2.00;;
25868;SDS011;13688;53.154;18.136;2023-08-06T03:00:46;2.55;;;1.82;;
25868;SDS011;13688;53.154;18.136;2023-08-06T03:06:28;2.07;;;1.60;;
25868;SDS011;13688;53.154;18.136;2023-08-06T03:11:51;3.30;;;1.87;;
25868;SDS011;13688;53.154;18.136;2023-08-06T03:17:13;3.47;;;1.93;;
25868;SDS011;13688;53.154;18.136;2023-08-06T03:22:37;5.03;;;1.80;;
25868;SDS011;13688;53.154;18.136;2023-08-06T03:28:03;3.37;;;1.80;;
25868;SDS011;13688;53.154;18.136;2023-08-06T03:33:26;3.67;;;1.83;;
25868;SDS011;13688;53.154;18.136;2023-08-06T03:38:50;4.40;;;2.00;;
25868;SDS011;13688;53.154;18.136;2023-08-06T03:44:14;2.43;;;1.73;;
25868;SDS011;13688;53.154;18.136;2023-08-06T03:49:37;3.43;;;2.00;;
25868;SDS011;13688;53.154;18.136;2023-08-06T03:54:59;5.77;;;2.17;;
25868;SDS011;13688;53.154;18.136;2023-08-06T04:00:24;2.73;;;1.70;;
25868;SDS011;13688;53.154;18.136;2023-08-06T04:05:47;2.65;;;2.08;;
25868;SDS011;13688;53.154;18.136;2023-08-06T04:11:12;5.03;;;2.17;;
25868;SDS011;13688;53.154;18.136;2023-08-06T04:16:36;2.15;;;1.70;;
25868;SDS011;13688;53.154;18.136;2023-08-06T04:22:01;1.80;;;1.50;;
25868;SDS011;13688;53.154;18.136;2023-08-06T04:27:25;2.33;;;1.77;;
25868;SDS011;13688;53.154;18.136;2023-08-06T04:32:50;1.77;;;1.60;;
25868;SDS011;13688;53.154;18.136;2023-08-06T04:38:14;3.90;;;1.43;;
25868;SDS011;13688;53.154;18.136;2023-08-06T04:43:39;2.45;;;1.50;;
25868;SDS011;13688;53.154;18.136;2023-08-06T04:49:04;2.47;;;1.30;;
25868;SDS011;13688;53.154;18.136;2023-08-06T04:54:31;2.97;;;1.20;;
25868;SDS011;13688;53.154;18.136;2023-08-06T04:59:55;2.65;;;1.35;;
25868;SDS011;13688;53.154;18.136;2023-08-06T05:05:20;1.90;;;1.37;;
25868;SDS011;13688;53.154;18.136;2023-08-06T05:10:46;1.70;;;1.30;;
25868;SDS011;13688;53.154;18.136;2023-08-06T05:16:11;3.15;;;1.65;;
25868;SDS011;13688;53.154;18.136;2023-08-06T05:21:34;4.35;;;1.70;;
25868;SDS011;13688;53.154;18.136;2023-08-06T05:26:59;1.80;;;1.50;;
25868;SDS011;13688;53.154;18.136;2023-08-06T05:32:24;2.50;;;2.17;;
25868;SDS011;13688;53.154;18.136;2023-08-06T05:37:49;3.80;;;3.00;;
25868;SDS011;13688;53.154;18.136;2023-08-06T05:43:13;5.78;;;2.70;;
25868;SDS011;13688;53.154;18.136;2023-08-06T05:48:38;3.95;;;3.20;;
25868;SDS011;13688;53.154;18.136;2023-08-06T05:54:01;2.53;;;2.33;;
25868;SDS011;13688;53.154;18.136;2023-08-06T05:59:25;4.45;;;2.85;;
25868;SDS011;13688;53.154;18.136;2023-08-06T06:04:50;4.17;;;2.77;;
25868;SDS011;13688;53.154;18.136;2023-08-06T06:10:15;4.53;;;2.98;;
25868;SDS011;13688;53.154;18.136;2023-08-06T06:15:40;5.95;;;3.17;;
25868;SDS011;13688;53.154;18.136;2023-08-06T06:21:05;5.03;;;2.80;;
25868;SDS011;13688;53.154;18.136;2023-08-06T06:26:30;7.22;;;3.45;;
25868;SDS011;13688;53.154;18.136;2023-08-06T06:31:54;4.33;;;3.30;;
25868;SDS011;13688;53.154;18.136;2023-08-06T06:37:19;4.72;;;3.20;;
25868;SDS011;13688;53.154;18.136;2023-08-06T06:42:43;5.85;;;3.17;;
25868;SDS011;13688;53.154;18.136;2023-08-06T06:48:08;10.60;;;3.00;;
25868;SDS011;13688;53.154;18.136;2023-08-06T06:59:38;4.67;;;3.43;;
25868;SDS011;13688;53.154;18.136;2023-08-06T07:05:00;5.12;;;3.30;;
25868;SDS011;13688;53.154;18.136;2023-08-06T07:10:23;5.40;;;3.80;;
25868;SDS011;13688;53.154;18.136;2023-08-06T07:15:46;4.30;;;2.98;;
25868;SDS011;13688;53.154;18.136;2023-08-06T07:21:13;4.22;;;3.17;;
25868;SDS011;13688;53.154;18.136;2023-08-06T07:26:38;6.75;;;3.47;;
25868;SDS011;13688;53.154;18.136;2023-08-06T07:32:05;5.50;;;3.55;;
25868;SDS011;13688;53.154;18.136;2023-08-06T07:37:32;4.70;;;3.37;;
25868;SDS011;13688;53.154;18.136;2023-08-06T07:42:57;5.30;;;4.00;;
25868;SDS011;13688;53.154;18.136;2023-08-06T07:48:22;6.78;;;4.47;;
25868;SDS011;13688;53.154;18.136;2023-08-06T07:53:50;4.58;;;4.15;;
25868;SDS011;13688;53.154;18.136;2023-08-06T07:59:15;5.15;;;3.98;;
25868;SDS011;13688;53.154;18.136;2023-08-06T08:04:40;5.00;;;3.87;;
25868;SDS011;13688;53.154;18.136;2023-08-06T08:10:06;6.43;;;4.00;;
25868;SDS011;13688;53.154;18.136;2023-08-06T08:15:30;8.90;;;5.40;;
25868;SDS011;13688;53.154;18.136;2023-08-06T08:20:56;4.10;;;3.72;;
25868;SDS011;13688;53.154;18.136;2023-08-06T08:26:22;4.23;;;3.47;;
25868;SDS011;13688;53.154;18.136;2023-08-06T08:31:45;3.85;;;3.02;;
25868;SDS011;13688;53.154;18.136;2023-08-06T08:37:10;5.60;;;3.65;;
25868;SDS011;13688;53.154;18.136;2023-08-06T08:42:37;3.65;;;3.20;;
25868;SDS011;13688;53.154;18.136;2023-08-06T08:48:00;4.40;;;3.08;;
25868;SDS011;13688;53.154;18.136;2023-08-06T08:53:25;5.25;;;3.40;;
25868;SDS011;13688;53.154;18.136;2023-08-06T08:59:01;4.62;;;3.50;;
25868;SDS011;13688;53.154;18.136;2023-08-06T09:04:28;4.17;;;3.77;;
25868;SDS011;13688;53.154;18.136;2023-08-06T09:09:54;5.78;;;4.30;;
25868;SDS011;13688;53.154;18.136;2023-08-06T09:15:24;8.08;;;5.95;;
25868;SDS011;13688;53.154;18.136;2023-08-06T09:20:48;5.72;;;4.58;;
25868;SDS011;13688;53.154;18.136;2023-08-06T09:26:13;5.33;;;4.33;;
25868;SDS011;13688;53.154;18.136;2023-08-06T09:31:45;6.08;;;4.28;;
25868;SDS011;13688;53.154;18.136;2023-08-06T09:37:12;6.70;;;4.47;;
25868;SDS011;13688;53.154;18.136;2023-08-06T09:42:36;6.70;;;4.12;;
25868;SDS011;13688;53.154;18.136;2023-08-06T09:48:04;7.35;;;4.15;;
25868;SDS011;13688;53.154;18.136;2023-08-06T09:53:29;4.53;;;3.97;;
25868;SDS011;13688;53.154;18.136;2023-08-06T09:58:54;4.37;;;3.55;;
25868;SDS011;13688;53.154;18.136;2023-08-06T10:04:19;4.72;;;4.05;;
25868;SDS011;13688;53.154;18.136;2023-08-06T10:09:47;4.75;;;3.80;;
25868;SDS011;13688;53.154;18.136;2023-08-06T10:15:12;5.92;;;4.60;;
25868;SDS011;13688;53.154;18.136;2023-08-06T10:20:42;4.42;;;4.03;;
25868;SDS011;13688;53.154;18.136;2023-08-06T10:26:05;5.87;;;4.87;;
25868;SDS011;13688;53.154;18.136;2023-08-06T10:37:35;6.23;;;4.70;;
25868;SDS011;13688;53.154;18.136;2023-08-06T10:43:01;5.57;;;4.47;;
25868;SDS011;13688;53.154;18.136;2023-08-06T10:48:39;7.87;;;6.27;;
25868;SDS011;13688;53.154;18.136;2023-08-06T10:54:03;6.87;;;4.50;;
25868;SDS011;13688;53.154;18.136;2023-08-06T10:59:28;7.07;;;5.30;;
25868;SDS011;13688;53.154;18.136;2023-08-06T11:04:53;4.67;;;4.27;;
25868;SDS011;13688;53.154;18.136;2023-08-06T11:10:19;5.67;;;5.00;;
25868;SDS011;13688;53.154;18.136;2023-08-06T11:15:44;5.10;;;4.53;;
25868;SDS011;13688;53.154;18.136;2023-08-06T11:21:09;6.47;;;5.07;;
25868;SDS011;13688;53.154;18.136;2023-08-06T11:26:38;5.60;;;5.00;;
25868;SDS011;13688;53.154;18.136;2023-08-06T11:32:04;9.53;;;5.92;;
25868;SDS011;13688;53.154;18.136;2023-08-06T11:37:28;7.47;;;6.70;;
25868;SDS011;13688;53.154;18.136;2023-08-06T11:43:01;7.55;;;6.33;;
25868;SDS011;13688;53.154;18.136;2023-08-06T11:48:27;11.13;;;7.30;;
25868;SDS011;13688;53.154;18.136;2023-08-06T11:54:05;8.00;;;7.10;;
25868;SDS011;13688;53.154;18.136;2023-08-06T11:59:34;11.28;;;8.65;;
25868;SDS011;13688;53.154;18.136;2023-08-06T12:05:02;11.12;;;8.78;;
25868;SDS011;13688;53.154;18.136;2023-08-06T12:10:30;12.13;;;9.47;;
25868;SDS011;13688;53.154;18.136;2023-08-06T12:15:57;15.65;;;10.38;;
25868;SDS011;13688;53.154;18.136;2023-08-06T12:21:23;12.80;;;10.63;;
25868;SDS011;13688;53.154;18.136;2023-08-06T12:26:46;14.13;;;10.87;;
25868;SDS011;13688;53.154;18.136;2023-08-06T12:32:11;14.83;;;11.00;;
25868;SDS011;13688;53.154;18.136;2023-08-06T12:37:35;19.63;;;12.00;;
25868;SDS011;13688;53.154;18.136;2023-08-06T12:43:01;24.63;;;18.52;;
25868;SDS011;13688;53.154;18.136;2023-08-06T12:48:25;17.80;;;11.87;;
25868;SDS011;13688;53.154;18.136;2023-08-06T12:53:52;14.60;;;12.10;;
25868;SDS011;13688;53.154;18.136;2023-08-06T12:59:17;13.90;;;11.28;;
25868;SDS011;13688;53.154;18.136;2023-08-06T13:04:41;14.75;;;10.82;;
25868;SDS011;13688;53.154;18.136;2023-08-06T13:10:12;17.32;;;11.38;;
25868;SDS011;13688;53.154;18.136;2023-08-06T13:15:38;14.55;;;11.05;;
25868;SDS011;13688;53.154;18.136;2023-08-06T13:21:03;15.08;;;11.73;;
25868;SDS011;13688;53.154;18.136;2023-08-06T13:26:33;13.00;;;10.87;;
25868;SDS011;13688;53.154;18.136;2023-08-06T13:31:56;17.40;;;10.78;;
25868;SDS011;13688;53.154;18.136;2023-08-06T13:37:26;12.80;;;10.35;;
25868;SDS011;13688;53.154;18.136;2023-08-06T13:42:51;17.98;;;11.68;;
25868;SDS011;13688;53.154;18.136;2023-08-06T13:48:20;12.87;;;11.03;;
25868;SDS011;13688;53.154;18.136;2023-08-06T13:53:47;14.93;;;11.87;;
25868;SDS011;13688;53.154;18.136;2023-08-06T13:59:10;17.32;;;12.55;;
25868;SDS011;13688;53.154;18.136;2023-08-06T14:04:33;18.60;;;12.40;;
25868;SDS011;13688;53.154;18.136;2023-08-06T14:09:58;17.50;;;13.30;;
25868;SDS011;13688;53.154;18.136;2023-08-06T14:15:25;15.38;;;13.53;;
25868;SDS011;13688;53.154;18.136;2023-08-06T14:20:49;13.62;;;12.10;;
25868;SDS011;13688;53.154;18.136;2023-08-06T14:26:12;17.98;;;13.22;;
25868;SDS011;13688;53.154;18.136;2023-08-06T14:31:36;21.95;;;15.58;;
25868;SDS011;13688;53.154;18.136;2023-08-06T14:37:16;18.13;;;15.10;;
25868;SDS011;13688;53.154;18.136;2023-08-06T14:42:40;20.08;;;15.53;;
25868;SDS011;13688;53.154;18.136;2023-08-06T14:48:07;26.00;;;19.17;;
25868;SDS011;13688;53.154;18.136;2023-08-06T14:53:34;16.37;;;11.50;;
25868;SDS011;13688;53.154;18.136;2023-08-06T14:58:58;12.88;;;10.38;;
25868;SDS011;13688;53.154;18.136;2023-08-06T15:04:25;9.73;;;8.30;;
25868;SDS011;13688;53.154;18.136;2023-08-06T15:09:48;8.43;;;7.53;;
25868;SDS011;13688;53.154;18.136;2023-08-06T15:15:14;9.20;;;5.72;;
25868;SDS011;13688;53.154;18.136;2023-08-06T15:20:37;5.10;;;4.53;;
25868;SDS011;13688;53.154;18.136;2023-08-06T15:26:11;6.60;;;3.43;;
25868;SDS011;13688;53.154;18.136;2023-08-06T15:31:36;2.10;;;1.70;;
25868;SDS011;13688;53.154;18.136;2023-08-06T15:37:00;1.72;;;0.90;;
25868;SDS011;13688;53.154;18.136;2023-08-06T15:42:24;2.02;;;0.80;;
25868;SDS011;13688;53.154;18.136;2023-08-06T15:47:46;1.00;;;0.77;;
25868;SDS011;13688;53.154;18.136;2023-08-06T15:53:09;0.60;;;0.60;;
25868;SDS011;13688;53.154;18.136;2023-08-06T15:58:35;1.30;;;0.60;;
25868;SDS011;13688;53.154;18.136;2023-08-06T16:03:58;0.40;;;0.40;;
25868;SDS011;13688;53.154;18.136;2023-08-06T16:09:21;0.68;;;0.50;;
25868;SDS011;13688;53.154;18.136;2023-08-06T16:14:45;2.80;;;0.50;;
25868;SDS011;13688;53.154;18.136;2023-08-06T16:20:08;1.02;;;0.70;;
25868;SDS011;13688;53.154;18.136;2023-08-06T16:25:31;0.60;;;0.40;;
25868;SDS011;13688;53.154;18.136;2023-08-06T16:30:54;0.50;;;0.40;;
25868;SDS011;13688;53.154;18.136;2023-08-06T16:36:16;1.23;;;0.60;;
25868;SDS011;13688;53.154;18.136;2023-08-06T16:41:39;0.80;;;0.60;;
25868;SDS011;13688;53.154;18.136;2023-08-06T16:47:02;1.17;;;0.50;;
25868;SDS011;13688;53.154;18.136;2023-08-06T16:52:25;0.53;;;0.50;;
25868;SDS011;13688;53.154;18.136;2023-08-06T16:57:47;1.05;;;0.40;;
25868;SDS011;13688;53.154;18.136;2023-08-06T17:03:10;6.70;;;0.72;;
25868;SDS011;13688;53.154;18.136;2023-08-06T17:08:34;2.80;;;0.57;;
25868;SDS011;13688;53.154;18.136;2023-08-06T17:14:01;0.72;;;0.57;;
25868;SDS011;13688;53.154;18.136;2023-08-06T17:19:25;0.70;;;0.50;;
25868;SDS011;13688;53.154;18.136;2023-08-06T17:25:07;0.62;;;0.40;;
25868;SDS011;13688;53.154;18.136;2023-08-06T17:30:41;0.45;;;0.30;;
25868;SDS011;13688;53.154;18.136;2023-08-06T17:36:10;1.50;;;0.50;;
25868;SDS011;13688;53.154;18.136;2023-08-06T17:41:41;2.40;;;0.50;;
25868;SDS011;13688;53.154;18.136;2023-08-06T17:47:14;0.70;;;0.50;;
25868;SDS011;13688;53.154;18.136;2023-08-06T17:53:00;1.03;;;0.40;;
25868;SDS011;13688;53.154;18.136;2023-08-06T17:58:24;1.73;;;0.40;;
25868;SDS011;13688;53.154;18.136;2023-08-06T18:03:48;2.77;;;0.50;;
25868;SDS011;13688;53.154;18.136;2023-08-06T18:09:11;0.50;;;0.37;;
25868;SDS011;13688;53.154;18.136;2023-08-06T18:14:34;0.57;;;0.30;;
25868;SDS011;13688;53.154;18.136;2023-08-06T18:19:58;1.03;;;0.40;;
25868;SDS011;13688;53.154;18.136;2023-08-06T18:25:22;4.70;;;0.70;;
25868;SDS011;13688;53.154;18.136;2023-08-06T18:30:45;2.03;;;0.40;;
25868;SDS011;13688;53.154;18.136;2023-08-06T18:36:08;1.35;;;0.50;;
25868;SDS011;13688;53.154;18.136;2023-08-06T18:41:32;0.98;;;0.40;;
25868;SDS011;13688;53.154;18.136;2023-08-06T18:46:55;0.30;;;0.30;;
25868;SDS011;13688;53.154;18.136;2023-08-06T18:52:18;1.60;;;0.30;;
25868;SDS011;13688;53.154;18.136;2023-08-06T18:57:42;0.57;;;0.30;;
25868;SDS011;13688;53.154;18.136;2023-08-06T19:03:06;0.40;;;0.40;;
25868;SDS011;13688;53.154;18.136;2023-08-06T19:08:29;1.12;;;0.40;;
25868;SDS011;13688;53.154;18.136;2023-08-06T19:13:52;0.37;;;0.30;;
25868;SDS011;13688;53.154;18.136;2023-08-06T19:19:22;0.97;;;0.30;;
25868;SDS011;13688;53.154;18.136;2023-08-06T19:24:47;0.50;;;0.40;;
25868;SDS011;13688;53.154;18.136;2023-08-06T19:30:09;1.42;;;0.37;;
25868;SDS011;13688;53.154;18.136;2023-08-06T19:35:36;0.25;;;0.20;;
25868;SDS011;13688;53.154;18.136;2023-08-06T19:41:08;0.50;;;0.30;;
25868;SDS011;13688;53.154;18.136;2023-08-06T19:46:27;1.70;;;0.30;;
25868;SDS011;13688;53.154;18.136;2023-08-06T19:51:52;1.17;;;0.30;;
25868;SDS011;13688;53.154;18.136;2023-08-06T19:57:32;1.23;;;0.40;;
25868;SDS011;13688;53.154;18.136;2023-08-06T20:02:54;0.53;;;0.30;;
25868;SDS011;13688;53.154;18.136;2023-08-06T20:08:18;1.27;;;0.40;;
25868;SDS011;13688;53.154;18.136;2023-08-06T20:13:43;0.30;;;0.30;;
25868;SDS011;13688;53.154;18.136;2023-08-06T20:19:05;0.23;;;0.20;;
25868;SDS011;13688;53.154;18.136;2023-08-06T20:24:28;1.95;;;0.30;;
25868;SDS011;13688;53.154;18.136;2023-08-06T20:29:50;2.15;;;0.30;;
25868;SDS011;13688;53.154;18.136;2023-08-06T20:35:13;1.98;;;0.20;;
25868;SDS011;13688;53.154;18.136;2023-08-06T20:40:38;0.80;;;0.40;;
25868;SDS011;13688;53.154;18.136;2023-08-06T20:46:00;0.90;;;0.40;;
25868;SDS011;13688;53.154;18.136;2023-08-06T20:51:22;0.70;;;0.30;;
25868;SDS011;13688;53.154;18.136;2023-08-06T20:56:47;0.47;;;0.25;;
25868;SDS011;13688;53.154;18.136;2023-08-06T21:02:10;0.85;;;0.30;;
25868;SDS011;13688;53.154;18.136;2023-08-06T21:07:38;0.40;;;0.30;;
25868;SDS011;13688;53.154;18.136;2023-08-06T21:13:00;0.50;;;0.50;;
25868;SDS011;13688;53.154;18.136;2023-08-06T21:18:24;0.50;;;0.30;;
25868;SDS011;13688;53.154;18.136;2023-08-06T21:23:51;0.20;;;0.20;;
25868;SDS011;13688;53.154;18.136;2023-08-06T21:29:16;0.30;;;0.30;;
25868;SDS011;13688;53.154;18.136;2023-08-06T21:34:38;1.00;;;0.30;;
25868;SDS011;13688;53.154;18.136;2023-08-06T21:40:03;0.65;;;0.23;;
25868;SDS011;13688;53.154;18.136;2023-08-06T21:45:27;0.68;;;0.30;;
25868;SDS011;13688;53.154;18.136;2023-08-06T21:50:52;2.30;;;0.60;;
25868;SDS011;13688;53.154;18.136;2023-08-06T21:56:20;1.95;;;0.40;;
25868;SDS011;13688;53.154;18.136;2023-08-06T22:01:42;0.85;;;0.40;;
25868;SDS011;13688;53.154;18.136;2023-08-06T22:07:05;0.80;;;0.50;;
25868;SDS011;13688;53.154;18.136;2023-08-06T22:12:27;1.00;;;0.40;;
25868;SDS011;13688;53.154;18.136;2023-08-06T22:17:49;0.77;;;0.53;;
25868;SDS011;13688;53.154;18.136;2023-08-06T22:23:12;1.02;;;0.42;;
25868;SDS011;13688;53.154;18.136;2023-08-06T22:28:34;3.03;;;0.30;;
25868;SDS011;13688;53.154;18.136;2023-08-06T22:34:00;1.17;;;0.40;;
25868;SDS011;13688;53.154;18.136;2023-08-06T22:39:22;0.90;;;0.40;;
25868;SDS011;13688;53.154;18.136;2023-08-06T22:44:44;0.57;;;0.20;;
25868;SDS011;13688;53.154;18.136;2023-08-06T22:50:07;0.90;;;0.45;;
25868;SDS011;13688;53.154;18.136;2023-08-06T22:55:30;1.65;;;0.60;;
25868;SDS011;13688;53.154;18.136;2023-08-06T23:00:53;1.75;;;0.80;;
25868;SDS011;13688;53.154;18.136;2023-08-06T23:06:17;2.07;;;1.40;;
25868;SDS011;13688;53.154;18.136;2023-08-06T23:11:39;4.45;;;1.20;;
25868;SDS011;13688;53.154;18.136;2023-08-06T23:17:02;2.75;;;1.57;;
25868;SDS011;13688;53.154;18.136;2023-08-06T23:22:24;1.90;;;1.65;;
25868;SDS011;13688;53.154;18.136;2023-08-06T23:27:47;1.60;;;1.10;;
25868;SDS011;13688;53.154;18.136;2023-08-06T23:33:09;2.83;;;1.33;;
25868;SDS011;13688;53.154;18.136;2023-08-06T23:38:32;1.45;;;0.82;;
25868;SDS011;13688;53.154;18.136;2023-08-06T23:43:57;3.85;;;1.15;;
25868;SDS011;13688;53.154;18.136;2023-08-06T23:49:19;2.15;;;1.15;;
25868;SDS011;13688;53.154;18.136;2023-08-06T23:54:42;2.33;;;1.37;;
